Time;durP1;ratioP1;P1;durP2;ratioP2;P2;SDS_P1;SDS_P2;PMS_P1;PMS_P2;Temp;Humidity;BMP_temperature;BMP_pressure;BME280_temperature;BME280_humidity;BME280_pressure;Samples;Min_cycle;Max_cycle;Signal;HPM_P1;HPM_P2
2023/06/20 00:00:25;;;;;;;19.92;9.45;;;18.50;99.90;;;;;;4200769;28;20119;-85
2023/06/20 00:02:25;;;;;;;15.80;8.93;;;18.40;99.90;;;;;;4199848;28;20051;-85
2023/06/20 00:04:26;;;;;;;18.17;10.05;;;18.40;99.90;;;;;;4183991;28;20045;-85
2023/06/20 00:06:27;;;;;;;18.55;11.02;;;18.40;99.90;;;;;;4200826;28;20484;-86
2023/06/20 00:08:28;;;;;;;18.75;11.20;;;18.40;99.90;;;;;;4200645;28;20073;-85
2023/06/20 00:10:29;;;;;;;18.98;11.02;;;18.40;99.90;;;;;;4200443;28;20044;-85
2023/06/20 00:12:29;;;;;;;18.20;10.95;;;18.40;99.90;;;;;;4181830;28;20075;-85
2023/06/20 00:14:31;;;;;;;17.95;11.20;;;18.40;99.90;;;;;;4203334;28;20056;-85
2023/06/20 00:16:31;;;;;;;15.88;9.90;;;18.40;99.90;;;;;;4198755;28;20062;-85
2023/06/20 00:18:32;;;;;;;18.77;10.13;;;18.30;99.90;;;;;;4201354;28;20049;-85
2023/06/20 00:20:33;;;;;;;18.20;11.07;;;18.40;99.90;;;;;;4199425;28;20048;-86
2023/06/20 00:22:34;;;;;;;17.58;10.02;;;18.30;99.90;;;;;;4182620;28;20095;-85
2023/06/20 00:24:35;;;;;;;20.65;11.15;;;18.30;99.90;;;;;;4184197;28;20102;-85
2023/06/20 00:26:39;;;;;;;19.95;10.25;;;18.30;99.90;;;;;;4182392;28;20049;-85
2023/06/20 00:28:40;;;;;;;13.73;8.82;;;18.30;99.90;;;;;;4183059;28;20040;-86
2023/06/20 00:30:42;;;;;;;20.40;9.98;;;18.20;99.90;;;;;;4182591;28;20188;-86
2023/06/20 00:32:42;;;;;;;15.85;10.13;;;18.20;99.90;;;;;;4192363;28;20048;-86
2023/06/20 00:34:43;;;;;;;22.73;11.13;;;18.10;99.90;;;;;;4180997;28;20128;-85
2023/06/20 00:36:44;;;;;;;16.13;9.32;;;18.10;99.90;;;;;;4182047;28;20386;-85
2023/06/20 00:38:48;;;;;;;17.20;9.45;;;18.10;99.90;;;;;;4181432;28;20540;-85
2023/06/20 00:40:49;;;;;;;18.08;10.30;;;18.00;99.90;;;;;;4182673;28;20086;-86
2023/06/20 00:42:50;;;;;;;14.88;9.02;;;18.00;99.90;;;;;;4181468;28;20448;-86
2023/06/20 00:44:51;;;;;;;15.70;10.15;;;18.00;99.90;;;;;;4181241;28;20079;-86
2023/06/20 00:46:52;;;;;;;19.85;10.25;;;18.00;99.90;;;;;;4183640;28;20045;-86
2023/06/20 00:48:54;;;;;;;16.40;10.13;;;18.00;99.90;;;;;;4181985;28;20073;-86
2023/06/20 00:50:54;;;;;;;15.52;9.75;;;17.90;99.90;;;;;;4181966;28;20063;-85
2023/06/20 00:53:05;;;;;;;18.52;10.13;;;17.90;99.90;;;;;;4181643;28;20489;-86
2023/06/20 00:55:07;;;;;;;16.42;9.23;;;17.90;99.90;;;;;;4183214;28;20071;-86
2023/06/20 00:57:07;;;;;;;17.70;9.85;;;17.90;99.90;;;;;;4182572;28;20045;-86
2023/06/20 00:59:08;;;;;;;16.27;9.65;;;17.90;99.90;;;;;;4181831;28;20602;-86
2023/06/20 01:01:09;;;;;;;16.30;9.20;;;17.90;99.90;;;;;;4181172;28;20052;-86
2023/06/20 01:03:12;;;;;;;15.07;9.73;;;17.80;99.90;;;;;;4181947;28;20045;-86
2023/06/20 01:05:14;;;;;;;17.10;9.48;;;17.80;99.90;;;;;;4181177;28;20041;-86
2023/06/20 01:07:24;;;;;;;17.67;10.05;;;17.80;99.90;;;;;;4182651;28;20097;-86
2023/06/20 01:10:05;;;;;;;16.50;9.13;;;17.80;99.90;;;;;;4198820;28;20166;-86
2023/06/20 01:12:29;;;;;;;14.25;8.93;;;17.80;99.90;;;;;;4197669;28;20101;-86
2023/06/20 01:14:53;;;;;;;13.25;8.35;;;17.80;99.90;;;;;;4198367;28;20048;-86
2023/06/20 01:17:09;;;;;;;16.23;8.02;;;17.70;99.90;;;;;;4198630;28;20044;-85
2023/06/20 01:19:31;;;;;;;16.05;8.63;;;17.70;99.90;;;;;;4199041;28;20079;-85
2023/06/20 01:21:37;;;;;;;14.88;7.45;;;17.70;99.90;;;;;;4198957;28;20106;-86
2023/06/20 01:23:52;;;;;;;10.38;7.03;;;17.60;99.90;;;;;;4206731;28;20136;-86
2023/06/20 01:26:03;;;;;;;13.25;7.45;;;17.60;99.90;;;;;;4206521;28;20048;-86
2023/06/20 01:28:38;;;;;;;12.15;7.53;;;17.60;99.90;;;;;;4199707;28;20045;-86
2023/06/20 01:30:54;;;;;;;13.60;7.50;;;17.60;99.90;;;;;;4200041;28;20044;-86
2023/06/20 01:32:57;;;;;;;13.45;7.57;;;17.60;99.90;;;;;;4198738;28;20063;-86
2023/06/20 01:35:06;;;;;;;13.35;7.00;;;17.60;99.90;;;;;;4198562;28;20125;-86
2023/06/20 01:37:15;;;;;;;12.60;7.00;;;17.60;99.90;;;;;;4179846;28;20045;-86
2023/06/20 01:39:24;;;;;;;12.63;7.00;;;17.50;99.90;;;;;;4198343;28;20041;-85
2023/06/20 01:41:28;;;;;;;11.32;6.47;;;17.50;99.90;;;;;;4181090;28;20045;-86
2023/06/20 01:43:30;;;;;;;13.45;6.95;;;17.50;99.90;;;;;;4182540;28;20053;-86
2023/06/20 01:45:35;;;;;;;11.13;6.18;;;17.50;99.90;;;;;;4195794;28;20123;-86
2023/06/20 01:47:39;;;;;;;11.85;6.70;;;17.50;99.90;;;;;;4215954;28;20545;-86
2023/06/20 01:49:42;;;;;;;13.57;6.82;;;17.50;99.90;;;;;;4196901;28;20052;-86
2023/06/20 01:51:44;;;;;;;13.30;6.88;;;17.50;99.90;;;;;;4215359;28;20036;-86
2023/06/20 01:53:47;;;;;;;12.68;6.50;;;17.50;99.90;;;;;;4215106;28;20123;-86
2023/06/20 01:55:48;;;;;;;12.60;6.97;;;17.50;99.90;;;;;;4214745;28;20040;-86
2023/06/20 01:57:53;;;;;;;13.02;6.53;;;17.50;99.90;;;;;;4215511;28;20040;-87
2023/06/20 01:59:55;;;;;;;13.50;6.80;;;17.50;99.90;;;;;;4196610;28;20044;-85
2023/06/20 02:01:58;;;;;;;15.48;7.10;;;17.40;99.90;;;;;;4196858;28;20057;-84
2023/06/20 02:04:00;;;;;;;10.82;7.43;;;17.50;99.90;;;;;;4214678;28;20051;-84
2023/06/20 02:06:02;;;;;;;13.00;6.93;;;17.50;99.90;;;;;;4196598;28;20052;-84
2023/06/20 02:08:05;;;;;;;11.95;6.93;;;17.50;99.90;;;;;;4196708;28;20123;-84
2023/06/20 02:10:06;;;;;;;15.32;6.57;;;17.50;99.90;;;;;;4214344;28;20091;-84
2023/06/20 02:12:09;;;;;;;14.80;7.68;;;17.50;99.90;;;;;;4196983;28;20052;-85
2023/06/20 02:14:10;;;;;;;13.05;6.90;;;17.50;99.90;;;;;;4214835;28;20419;-85
2023/06/20 02:16:12;;;;;;;13.45;7.05;;;17.50;99.90;;;;;;4196986;28;20055;-85
2023/06/20 02:18:13;;;;;;;11.48;6.80;;;17.50;99.90;;;;;;4194661;28;20048;-84
2023/06/20 02:20:14;;;;;;;12.90;6.57;;;17.50;99.90;;;;;;4180026;28;20049;-85
2023/06/20 02:22:19;;;;;;;15.98;6.70;;;17.40;99.90;;;;;;4180139;28;20045;-85
2023/06/20 02:24:22;;;;;;;13.43;6.45;;;17.40;99.90;;;;;;4181328;28;20451;-85
2023/06/20 02:26:28;;;;;;;16.85;7.30;;;17.40;99.90;;;;;;4163489;28;20049;-85
2023/06/20 02:28:29;;;;;;;14.05;7.35;;;17.40;99.90;;;;;;4146722;28;20153;-85
2023/06/20 02:30:32;;;;;;;11.77;6.55;;;17.40;99.90;;;;;;4181464;28;20130;-85
2023/06/20 02:32:34;;;;;;;10.85;6.60;;;17.40;99.90;;;;;;4147675;28;20529;-85
2023/06/20 02:34:36;;;;;;;14.18;6.75;;;17.40;99.90;;;;;;4147489;28;20050;-85
2023/06/20 02:36:38;;;;;;;13.65;6.85;;;17.40;99.90;;;;;;4168655;28;20037;-86
2023/06/20 02:38:39;;;;;;;11.50;6.68;;;17.40;99.90;;;;;;4198218;28;20400;-85
2023/06/20 02:40:40;;;;;;;11.75;6.68;;;17.40;99.90;;;;;;4198803;28;20101;-85
2023/06/20 02:42:41;;;;;;;10.57;6.85;;;17.40;99.90;;;;;;4179831;28;20049;-86
2023/06/20 02:44:42;;;;;;;11.55;7.15;;;17.40;99.90;;;;;;4180829;28;20080;-86
2023/06/20 02:47:05;;;;;;;19.52;7.65;;;17.40;99.90;;;;;;4179773;28;20048;-86
2023/06/20 02:49:34;;;;;;;10.40;6.68;;;17.40;99.90;;;;;;4179036;28;20390;-86
2023/06/20 02:51:47;;;;;;;12.07;7.05;;;17.40;99.90;;;;;;4179859;28;20429;-85
2023/06/20 02:54:00;;;;;;;14.05;7.35;;;17.30;99.90;;;;;;4199766;28;20044;-86
2023/06/20 02:56:07;;;;;;;17.10;7.03;;;17.30;99.90;;;;;;4200790;28;20041;-85
2023/06/20 02:58:14;;;;;;;12.13;7.50;;;17.30;99.90;;;;;;4200641;28;20040;-86
2023/06/20 03:00:16;;;;;;;14.27;7.30;;;17.30;99.90;;;;;;4183432;28;20057;-86
2023/06/20 03:02:18;;;;;;;15.27;7.45;;;17.30;99.90;;;;;;4201922;28;20071;-86
2023/06/20 03:04:20;;;;;;;15.85;7.78;;;17.30;99.90;;;;;;4202571;28;20498;-86
2023/06/20 03:06:27;;;;;;;11.70;6.78;;;17.30;99.90;;;;;;4201968;28;20048;-85
2023/06/20 03:08:29;;;;;;;16.23;7.25;;;17.30;99.90;;;;;;4202299;28;20040;-85
2023/06/20 03:10:34;;;;;;;11.95;7.28;;;17.30;99.90;;;;;;4179639;28;20151;-85
2023/06/20 03:12:35;;;;;;;12.95;7.05;;;17.30;99.90;;;;;;4169566;28;20057;-86
2023/06/20 03:14:36;;;;;;;13.02;7.50;;;17.20;99.90;;;;;;4167609;28;20045;-86
2023/06/20 03:16:36;;;;;;;15.63;8.52;;;17.30;99.90;;;;;;4185147;28;20467;-86
2023/06/20 03:18:39;;;;;;;13.93;7.65;;;17.20;99.90;;;;;;4184325;28;20073;-87
2023/06/20 03:20:43;;;;;;;13.77;7.65;;;17.20;99.90;;;;;;4166633;28;20064;-86
2023/06/20 03:22:44;;;;;;;12.25;7.40;;;17.20;99.90;;;;;;4156057;28;20053;-86
2023/06/20 03:24:47;;;;;;;20.52;9.63;;;17.20;99.90;;;;;;4182490;28;20056;-86
2023/06/20 03:26:49;;;;;;;17.98;8.25;;;17.20;99.90;;;;;;4200803;28;20492;-87
2023/06/20 03:28:49;;;;;;;12.57;8.05;;;17.20;99.90;;;;;;4213435;28;20067;-92
2023/06/20 03:30:51;;;;;;;12.43;7.78;;;17.20;99.90;;;;;;4236721;28;20023;-92
2023/06/20 03:32:51;;;;;;;13.27;8.52;;;17.20;99.90;;;;;;4237235;28;20354;-92
2023/06/20 03:34:55;;;;;;;18.55;7.82;;;17.20;99.90;;;;;;4237621;28;20028;-91
2023/06/20 03:36:56;;;;;;;13.52;8.30;;;17.20;99.90;;;;;;4237957;28;20063;-92
2023/06/20 03:38:58;;;;;;;14.68;8.15;;;17.30;99.90;;;;;;4209222;28;20047;-91
2023/06/20 03:41:00;;;;;;;15.15;8.00;;;17.20;99.90;;;;;;4220326;28;20608;-92
2023/06/20 03:43:02;;;;;;;18.40;8.57;;;17.30;99.90;;;;;;4186385;28;20049;-92
2023/06/20 03:45:04;;;;;;;18.67;9.88;;;17.30;99.90;;;;;;4184181;28;20049;-92
2023/06/20 03:47:05;;;;;;;16.85;8.82;;;17.30;99.90;;;;;;4185287;28;20481;-92
2023/06/20 03:49:07;;;;;;;14.45;8.13;;;17.30;99.90;;;;;;4169291;28;20041;-92
2023/06/20 03:51:08;;;;;;;15.82;8.00;;;17.30;99.90;;;;;;4186223;28;20053;-91
2023/06/20 03:53:10;;;;;;;15.32;8.18;;;17.30;99.90;;;;;;4185574;28;20092;-91
2023/06/20 03:55:12;;;;;;;15.00;7.13;;;17.30;99.90;;;;;;4186434;28;20032;-91
2023/06/20 03:57:14;;;;;;;15.77;9.15;;;17.30;99.90;;;;;;4169390;28;20080;-90
2023/06/20 03:59:15;;;;;;;16.33;8.77;;;17.30;99.90;;;;;;4184332;28;20167;-91
2023/06/20 04:01:16;;;;;;;17.70;8.13;;;17.40;99.90;;;;;;4168458;28;20037;-92
2023/06/20 04:03:18;;;;;;;19.35;8.57;;;17.30;99.90;;;;;;4190271;28;20485;-92
2023/06/20 04:05:19;;;;;;;13.30;7.93;;;17.30;99.90;;;;;;4184771;28;20132;-91
2023/06/20 04:07:20;;;;;;;17.25;8.13;;;17.30;99.90;;;;;;4184840;28;20053;-91
2023/06/20 04:09:25;;;;;;;13.05;8.05;;;17.40;99.90;;;;;;4204025;28;20060;-91
2023/06/20 04:11:26;;;;;;;15.52;8.32;;;17.40;99.90;;;;;;4185441;28;20501;-90
2023/06/20 04:13:34;;;;;;;17.70;8.10;;;17.40;99.90;;;;;;4168496;28;20088;-91
2023/06/20 04:15:36;;;;;;;14.55;9.07;;;17.50;99.90;;;;;;4185437;28;20108;-91
2023/06/20 04:17:40;;;;;;;18.70;8.43;;;17.50;99.90;;;;;;4202540;28;20111;-91
2023/06/20 04:19:42;;;;;;;16.95;8.95;;;17.50;99.90;;;;;;4185915;28;20065;-91
2023/06/20 04:21:47;;;;;;;12.65;8.40;;;17.50;99.90;;;;;;4213032;28;20119;-91
2023/06/20 04:23:49;;;;;;;15.65;8.05;;;17.50;99.90;;;;;;4185676;28;20049;-91
2023/06/20 04:25:49;;;;;;;15.60;8.43;;;17.50;99.90;;;;;;4202366;28;20053;-92
2023/06/20 04:27:53;;;;;;;15.60;8.15;;;17.60;99.90;;;;;;4201866;28;20402;-92
2023/06/20 04:29:57;;;;;;;14.00;8.35;;;16.50;99.90;;;;;;4203067;28;20040;-92
2023/06/20 04:32:01;;;;;;;13.80;7.75;;;17.70;99.90;;;;;;4200969;28;20036;-92
2023/06/20 04:34:04;;;;;;;13.68;8.82;;;17.70;99.90;;;;;;4203837;28;20363;-91
2023/06/20 04:36:05;;;;;;;13.63;8.73;;;17.70;99.90;;;;;;4188510;28;20513;-92
2023/06/20 04:38:09;;;;;;;13.52;7.95;;;17.80;99.90;;;;;;4205275;28;20041;-92
2023/06/20 04:40:11;;;;;;;15.95;7.57;;;17.90;99.90;;;;;;4185749;28;20046;-92
2023/06/20 04:42:12;;;;;;;15.75;8.63;;;17.10;99.90;;;;;;4202593;28;20045;-91
2023/06/20 04:44:12;;;;;;;14.70;8.55;;;18.00;99.90;;;;;;4170348;28;20056;-92
2023/06/20 04:46:22;;;;;;;11.55;7.53;;;18.00;99.90;;;;;;4185783;28;20049;-91
2023/06/20 04:48:37;;;;;;;12.18;8.18;;;18.00;99.90;;;;;;4193891;28;20108;-90
2023/06/20 04:50:41;;;;;;;11.70;7.85;;;18.10;99.90;;;;;;4186955;28;20079;-91
2023/06/20 04:52:44;;;;;;;13.95;7.78;;;18.10;99.90;;;;;;4184036;28;20073;-92
2023/06/20 04:54:50;;;;;;;13.80;7.55;;;18.20;99.90;;;;;;4186631;28;20028;-91
2023/06/20 04:56:52;;;;;;;16.80;8.23;;;18.20;99.90;;;;;;4169365;28;20163;-92
2023/06/20 04:58:54;;;;;;;14.38;7.97;;;18.30;99.90;;;;;;4184573;28;20048;-91
2023/06/20 05:00:59;;;;;;;12.65;7.70;;;18.30;99.90;;;;;;4203542;28;20075;-92
2023/06/20 05:03:04;;;;;;;12.82;7.50;;;18.30;99.90;;;;;;4183978;28;20493;-91
2023/06/20 05:05:05;;;;;;;11.73;7.68;;;17.90;99.90;;;;;;4202195;28;20048;-91
2023/06/20 05:07:06;;;;;;;12.82;7.15;;;18.30;99.90;;;;;;4166557;28;20037;-91
2023/06/20 05:09:06;;;;;;;12.27;7.65;;;18.40;99.90;;;;;;4184216;28;20527;-92
2023/06/20 05:11:13;;;;;;;13.60;7.82;;;18.40;99.90;;;;;;4166978;28;20051;-92
2023/06/20 05:13:16;;;;;;;15.73;7.78;;;18.40;99.90;;;;;;4183638;28;20045;-91
2023/06/20 05:15:23;;;;;;;13.07;7.78;;;18.40;99.90;;;;;;4183806;28;20135;-91
2023/06/20 05:17:27;;;;;;;11.82;7.05;;;18.40;99.90;;;;;;4172189;28;20045;-91
2023/06/20 05:19:28;;;;;;;12.98;7.60;;;18.40;99.90;;;;;;4184064;28;20049;-92
2023/06/20 05:21:30;;;;;;;18.05;8.35;;;18.40;99.90;;;;;;4184930;28;20049;-91
2023/06/20 05:23:30;;;;;;;12.32;7.10;;;18.40;99.90;;;;;;4200640;28;20071;-90
2023/06/20 05:25:31;;;;;;;11.20;7.22;;;18.40;99.90;;;;;;4201368;28;20040;-92
2023/06/20 05:27:34;;;;;;;65.85;12.90;;;18.40;99.90;;;;;;4183137;28;20040;-91
2023/06/20 05:29:35;;;;;;;42.17;11.27;;;18.50;99.90;;;;;;4201169;28;20129;-92
2023/06/20 05:31:43;;;;;;;22.95;8.98;;;18.50;99.90;;;;;;4199401;28;20048;-92
2023/06/20 05:33:43;;;;;;;14.10;8.13;;;18.50;99.90;;;;;;4183560;28;20037;-91
2023/06/20 05:35:46;;;;;;;55.47;10.23;;;18.50;99.90;;;;;;4184630;28;20488;-91
2023/06/20 05:37:49;;;;;;;22.25;8.45;;;18.50;99.90;;;;;;4166268;28;20042;-91
2023/06/20 05:39:51;;;;;;;28.83;8.15;;;18.60;99.90;;;;;;4184485;28;20064;-91
2023/06/20 05:41:56;;;;;;;18.25;6.85;;;18.60;99.90;;;;;;4182622;28;20041;-91
2023/06/20 05:43:56;;;;;;;14.43;7.63;;;18.60;99.90;;;;;;4184200;28;20080;-92
2023/06/20 05:46:04;;;;;;;13.10;7.32;;;18.60;99.90;;;;;;4183403;28;20564;-92
2023/06/20 05:48:08;;;;;;;13.93;7.32;;;18.70;99.90;;;;;;4192852;28;20083;-91
2023/06/20 05:50:10;;;;;;;13.57;6.85;;;18.70;99.90;;;;;;4219078;28;20075;-91
2023/06/20 05:52:11;;;;;;;12.20;7.07;;;18.70;99.90;;;;;;4199540;28;20037;-92
2023/06/20 05:54:13;;;;;;;10.25;7.03;;;18.70;99.90;;;;;;4200893;28;20052;-91
2023/06/20 05:56:15;;;;;;;14.23;7.80;;;18.70;99.90;;;;;;4183576;28;20044;-92
2023/06/20 05:58:17;;;;;;;16.02;7.20;;;19.60;99.90;;;;;;4199906;28;20099;-92
2023/06/20 06:00:20;;;;;;;11.52;7.32;;;18.80;99.90;;;;;;4201029;28;20049;-91
2023/06/20 06:02:21;;;;;;;14.68;8.05;;;18.80;99.90;;;;;;4199090;28;20153;-91
2023/06/20 06:04:22;;;;;;;14.30;7.63;;;18.80;99.90;;;;;;4184559;28;20416;-91
2023/06/20 06:06:25;;;;;;;14.38;8.23;;;18.80;99.90;;;;;;4199461;28;20131;-92
2023/06/20 06:08:26;;;;;;;13.73;7.57;;;18.80;99.90;;;;;;4200662;28;20083;-91
2023/06/20 06:10:33;;;;;;;14.25;8.32;;;18.80;99.90;;;;;;4190535;28;20053;-90
2023/06/20 06:12:36;;;;;;;12.90;7.28;;;18.90;99.90;;;;;;4184954;28;20041;-90
2023/06/20 06:14:41;;;;;;;11.93;8.05;;;18.90;99.90;;;;;;4199909;28;20431;-91
2023/06/20 06:16:44;;;;;;;11.82;7.75;;;18.90;99.90;;;;;;4197512;28;20049;-91
2023/06/20 06:18:45;;;;;;;15.75;7.88;;;19.00;99.90;;;;;;4198843;28;20044;-91
2023/06/20 06:20:54;;;;;;;14.23;7.60;;;19.00;99.90;;;;;;4148013;28;20045;-91
2023/06/20 06:22:54;;;;;;;13.07;7.07;;;19.00;99.90;;;;;;4210549;28;20048;-91
2023/06/20 06:24:56;;;;;;;16.40;7.63;;;19.00;99.90;;;;;;4199893;28;20045;-90
2023/06/20 06:26:58;;;;;;;13.77;6.90;;;19.10;99.90;;;;;;4200856;28;20131;-90
2023/06/20 06:29:01;;;;;;;14.63;7.15;;;19.10;99.90;;;;;;4187364;28;20049;-91
2023/06/20 06:31:09;;;;;;;13.23;7.35;;;19.20;99.90;;;;;;4201864;28;20036;-90
2023/06/20 06:33:12;;;;;;;12.50;7.80;;;19.30;99.90;;;;;;4220896;28;20062;-90
2023/06/20 06:35:16;;;;;;;12.65;7.10;;;19.30;99.90;;;;;;4202975;28;20083;-90
2023/06/20 06:37:17;;;;;;;14.50;7.15;;;19.30;99.90;;;;;;4201573;28;20070;-90
2023/06/20 06:39:19;;;;;;;13.43;7.28;;;19.40;99.90;;;;;;4195228;28;20103;-91
2023/06/20 06:41:21;;;;;;;14.82;7.30;;;19.40;99.90;;;;;;4197889;28;20044;-89
2023/06/20 06:43:23;;;;;;;14.23;7.45;;;19.40;99.90;;;;;;4203089;28;20075;-91
2023/06/20 06:45:26;;;;;;;14.23;7.70;;;19.50;99.90;;;;;;4201564;28;20183;-92
2023/06/20 06:47:28;;;;;;;14.10;7.90;;;19.60;99.90;;;;;;4185167;28;20088;-91
2023/06/20 06:49:31;;;;;;;15.70;8.70;;;19.60;99.90;;;;;;4172488;28;20056;-90
2023/06/20 06:51:34;;;;;;;15.15;7.40;;;19.70;99.90;;;;;;4192108;28;20047;-91
2023/06/20 06:53:36;;;;;;;20.05;8.93;;;19.80;99.90;;;;;;4203799;28;20071;-91
2023/06/20 06:55:37;;;;;;;12.30;7.43;;;19.80;99.90;;;;;;4219056;28;20039;-91
2023/06/20 06:57:39;;;;;;;11.38;7.68;;;19.90;99.90;;;;;;4186675;28;20063;-91
2023/06/20 06:59:47;;;;;;;14.15;8.35;;;20.00;99.90;;;;;;4186069;28;20120;-91
2023/06/20 07:01:48;;;;;;;12.40;7.22;;;20.10;99.90;;;;;;4201107;28;20055;-91
2023/06/20 07:03:49;;;;;;;15.07;8.35;;;20.20;99.90;;;;;;4203448;28;20541;-90
2023/06/20 07:05:50;;;;;;;19.13;9.02;;;20.30;99.90;;;;;;4185369;28;20052;-91
2023/06/20 07:07:56;;;;;;;15.63;8.32;;;20.30;99.90;;;;;;4185558;28;20028;-91
2023/06/20 07:09:57;;;;;;;14.07;8.07;;;20.40;99.90;;;;;;4201977;28;20123;-91
2023/06/20 07:12:00;;;;;;;13.25;8.00;;;20.40;99.90;;;;;;4187554;28;20052;-91
2023/06/20 07:14:03;;;;;;;14.10;8.32;;;20.50;99.90;;;;;;4186071;28;20040;-91
2023/06/20 07:16:05;;;;;;;13.23;8.40;;;20.50;99.90;;;;;;4200828;28;20101;-92
2023/06/20 07:18:07;;;;;;;13.00;7.80;;;20.60;99.90;;;;;;4186616;28;20053;-90
2023/06/20 07:20:09;;;;;;;14.48;7.45;;;20.60;99.90;;;;;;4220663;28;20044;-91
2023/06/20 07:22:10;;;;;;;17.08;7.95;;;20.70;99.90;;;;;;4206240;28;20544;-91
2023/06/20 07:24:11;;;;;;;12.73;7.57;;;20.80;99.90;;;;;;4219468;28;20040;-92
2023/06/20 07:26:11;;;;;;;15.75;8.15;;;20.90;99.90;;;;;;4201859;28;20585;-92
2023/06/20 07:28:12;;;;;;;12.02;6.78;;;20.90;99.90;;;;;;4209328;28;20040;-90
2023/06/20 07:30:14;;;;;;;15.25;7.10;;;21.00;99.90;;;;;;4208583;28;20094;-89
2023/06/20 07:32:16;;;;;;;14.10;8.20;;;21.10;99.90;;;;;;4210919;28;20028;-88
2023/06/20 07:34:18;;;;;;;16.55;6.88;;;21.10;99.90;;;;;;4207753;28;20449;-87
2023/06/20 07:36:18;;;;;;;12.77;7.93;;;21.20;99.90;;;;;;4219009;28;20196;-88
2023/06/20 07:38:21;;;;;;;10.85;6.55;;;21.20;99.90;;;;;;4208509;28;20172;-91
2023/06/20 07:40:23;;;;;;;11.43;7.82;;;21.30;99.90;;;;;;4187099;28;20118;-91
2023/06/20 07:42:30;;;;;;;12.02;7.13;;;21.30;99.90;;;;;;4186995;28;20212;-94
2023/06/20 07:44:32;;;;;;;11.88;7.45;;;21.40;99.90;;;;;;4194248;28;20044;-94
2023/06/20 07:46:40;;;;;;;11.43;7.22;;;21.40;99.90;;;;;;4225494;28;20094;-93
2023/06/20 07:48:46;;;;;;;15.65;8.02;;;21.50;99.90;;;;;;4204313;28;20040;-93
2023/06/20 07:50:47;;;;;;;12.98;7.15;;;21.50;99.90;;;;;;4188331;28;20413;-94
2023/06/20 07:52:49;;;;;;;13.20;7.15;;;21.60;99.90;;;;;;4201786;28;20128;-91
2023/06/20 07:54:50;;;;;;;16.42;8.63;;;21.70;99.90;;;;;;4189623;28;20056;-91
2023/06/20 07:56:57;;;;;;;16.50;6.70;;;21.80;99.90;;;;;;4181094;28;20092;-92
2023/06/20 07:59:05;;;;;;;13.27;7.40;;;21.80;99.90;;;;;;4193824;28;20079;-91
2023/06/20 08:01:07;;;;;;;10.70;6.72;;;22.90;99.90;;;;;;4209343;28;20048;-93
2023/06/20 08:03:12;;;;;;;13.70;7.15;;;22.00;99.90;;;;;;4192503;28;20049;-92
2023/06/20 08:05:14;;;;;;;11.38;7.65;;;22.00;99.90;;;;;;4196608;28;20049;-91
2023/06/20 08:07:15;;;;;;;10.43;6.57;;;22.20;99.90;;;;;;4210867;28;20052;-92
2023/06/20 08:09:16;;;;;;;12.82;7.50;;;22.20;99.90;;;;;;4205912;28;20040;-92
2023/06/20 08:11:24;;;;;;;12.10;6.95;;;22.30;99.90;;;;;;4176092;28;20060;-90
2023/06/20 08:13:27;;;;;;;11.02;6.85;;;22.40;99.90;;;;;;4212095;28;20052;-92
2023/06/20 08:15:27;;;;;;;14.48;7.03;;;22.50;99.90;;;;;;4187437;28;20119;-92
2023/06/20 08:17:37;;;;;;;14.30;7.00;;;22.60;99.90;;;;;;4192651;28;20059;-91
2023/06/20 08:19:42;;;;;;;10.40;6.13;;;22.80;99.90;;;;;;4214129;28;20066;-91
2023/06/20 08:21:43;;;;;;;10.88;6.05;;;22.90;99.90;;;;;;4186864;28;20040;-91
2023/06/20 08:23:45;;;;;;;10.82;7.07;;;22.90;99.90;;;;;;4197602;28;20051;-92
2023/06/20 08:25:48;;;;;;;10.80;6.80;;;23.00;99.90;;;;;;4177228;28;20057;-92
2023/06/20 08:27:50;;;;;;;14.10;7.47;;;23.20;99.90;;;;;;4168152;28;20061;-89
2023/06/20 08:29:51;;;;;;;11.30;6.63;;;23.30;99.90;;;;;;4183247;28;20056;-87
2023/06/20 08:31:52;;;;;;;10.90;6.22;;;23.40;99.90;;;;;;4189149;28;20048;-87
2023/06/20 08:33:56;;;;;;;10.90;6.20;;;23.50;99.90;;;;;;4183719;28;20048;-87
2023/06/20 08:35:57;;;;;;;7.88;5.63;;;23.60;99.90;;;;;;4168070;28;20048;-88
2023/06/20 08:37:58;;;;;;;10.00;6.95;;;23.80;99.90;;;;;;4200718;28;20050;-87
2023/06/20 08:39:58;;;;;;;9.40;6.72;;;23.80;99.90;;;;;;4184682;28;20067;-88
2023/06/20 08:41:59;;;;;;;11.90;7.07;;;23.90;99.90;;;;;;4196970;28;20109;-88
2023/06/20 08:44:01;;;;;;;11.30;6.80;;;23.90;99.90;;;;;;4193661;28;20441;-88
2023/06/20 08:46:02;;;;;;;13.48;7.07;;;23.80;99.90;;;;;;4201686;28;20045;-88
2023/06/20 08:48:03;;;;;;;9.73;6.45;;;23.70;99.90;;;;;;4200400;28;20044;-88
2023/06/20 08:50:05;;;;;;;11.50;6.18;;;23.70;99.90;;;;;;4183945;28;20405;-88
2023/06/20 08:52:13;;;;;;;12.55;6.22;;;23.70;99.90;;;;;;4216875;28;20051;-88
2023/06/20 08:54:16;;;;;;;11.73;6.47;;;23.80;99.90;;;;;;4200388;28;20053;-86
2023/06/20 08:56:20;;;;;;;8.95;6.13;;;23.70;99.90;;;;;;4196659;28;20048;-90
2023/06/20 08:58:22;;;;;;;11.38;6.35;;;23.70;99.90;;;;;;4194265;28;20508;-87
2023/06/20 09:00:24;;;;;;;8.48;6.32;;;23.70;99.90;;;;;;4192724;28;20127;-89
2023/06/20 09:02:24;;;;;;;9.95;5.80;;;23.60;99.90;;;;;;4182620;28;20059;-88
2023/06/20 09:04:28;;;;;;;12.82;6.70;;;23.60;99.90;;;;;;4198080;28;20131;-88
2023/06/20 09:06:40;;;;;;;10.77;6.15;;;23.70;99.90;;;;;;4196595;28;20056;-86
2023/06/20 09:08:41;;;;;;;11.35;5.95;;;23.70;99.90;;;;;;4195034;28;20044;-87
2023/06/20 09:10:46;;;;;;;8.70;6.03;;;23.70;99.90;;;;;;4198793;28;20048;-89
2023/06/20 09:12:52;;;;;;;11.02;5.63;;;23.90;99.90;;;;;;4194089;28;20133;-87
2023/06/20 09:14:54;;;;;;;11.27;6.70;;;24.00;99.90;;;;;;4198837;28;20052;-88
2023/06/20 09:16:56;;;;;;;32.65;7.93;;;24.00;99.90;;;;;;4200314;28;20477;-90
2023/06/20 09:19:04;;;;;;;23.98;7.72;;;24.20;99.90;;;;;;4199965;28;20044;-90
2023/06/20 09:21:05;;;;;;;81.40;11.35;;;24.30;99.90;;;;;;4198665;28;20040;-89
2023/06/20 09:23:07;;;;;;;32.20;9.00;;;24.20;99.90;;;;;;4200832;28;20045;-90
2023/06/20 09:25:20;;;;;;;93.82;13.93;;;24.50;99.90;;;;;;4184277;28;20052;-89
2023/06/20 09:27:22;;;;;;;29.92;8.70;;;24.60;99.90;;;;;;4184591;28;22784;-89
2023/06/20 09:29:23;;;;;;;14.35;7.38;;;24.80;99.90;;;;;;4185267;28;20049;-91
2023/06/20 09:31:24;;;;;;;13.73;6.18;;;24.80;99.90;;;;;;4197459;28;20594;-88
2023/06/20 09:33:25;;;;;;;13.70;6.95;;;24.80;99.90;;;;;;4213666;28;20088;-88
2023/06/20 09:35:26;;;;;;;11.90;6.93;;;24.90;99.90;;;;;;4189699;28;20084;-87
2023/06/20 09:37:38;;;;;;;9.55;6.60;;;25.00;99.90;;;;;;4196106;28;20045;-87
2023/06/20 09:39:40;;;;;;;13.70;7.60;;;24.80;99.90;;;;;;4182941;28;20525;-89
2023/06/20 09:41:49;;;;;;;9.57;6.50;;;24.70;99.90;;;;;;4197221;28;20044;-89
2023/06/20 09:43:50;;;;;;;7.55;5.80;;;24.70;99.90;;;;;;4212560;28;20049;-89
2023/06/20 09:45:51;;;;;;;10.27;6.25;;;24.80;99.90;;;;;;4200129;28;20044;-89
2023/06/20 09:47:54;;;;;;;13.75;6.45;;;24.90;99.90;;;;;;4203966;28;20078;-87
2023/06/20 09:49:58;;;;;;;10.60;6.30;;;25.00;99.90;;;;;;4211668;28;20092;-89
2023/06/20 09:52:07;;;;;;;7.95;5.78;;;25.10;99.90;;;;;;4204734;28;20047;-90
2023/06/20 09:54:12;;;;;;;8.67;6.10;;;25.30;99.90;;;;;;4198444;28;20060;-87
2023/06/20 09:56:14;;;;;;;7.88;5.95;;;25.30;99.90;;;;;;4197867;28;20044;-88
2023/06/20 09:58:19;;;;;;;8.20;5.38;;;25.40;99.90;;;;;;4207038;28;20065;-89
2023/06/20 10:00:22;;;;;;;7.40;5.65;;;25.50;99.90;;;;;;4214747;28;20115;-88
2023/06/20 10:02:25;;;;;;;8.93;6.45;;;25.60;99.90;;;;;;4215284;28;20055;-89
2023/06/20 10:04:28;;;;;;;7.63;5.47;;;25.40;99.90;;;;;;4205407;28;20540;-89
2023/06/20 10:06:30;;;;;;;12.60;6.28;;;25.80;99.90;;;;;;4206393;28;20165;-89
2023/06/20 10:08:32;;;;;;;8.80;5.55;;;25.90;99.90;;;;;;4207579;28;20055;-88
2023/06/20 10:10:32;;;;;;;10.13;5.68;;;26.00;99.90;;;;;;4190578;28;20491;-86
2023/06/20 10:12:34;;;;;;;8.13;5.32;;;26.10;99.90;;;;;;4204756;28;20040;-88
2023/06/20 10:14:36;;;;;;;13.68;6.30;;;26.40;99.90;;;;;;4208499;28;20495;-89
2023/06/20 10:16:37;;;;;;;8.68;5.75;;;26.50;99.90;;;;;;4221124;28;20048;-88
2023/06/20 10:18:38;;;;;;;12.35;5.05;;;26.70;99.90;;;;;;4198579;28;20513;-88
2023/06/20 10:20:40;;;;;;;9.15;5.55;;;27.00;99.90;;;;;;4192139;28;20053;-88
2023/06/20 10:22:43;;;;;;;5.82;4.45;;;27.20;99.90;;;;;;4203497;28;20802;-89
2023/06/20 10:24:49;;;;;;;8.40;4.88;;;27.40;99.90;;;;;;4215170;28;20075;-88
2023/06/20 10:26:54;;;;;;;8.85;5.05;;;27.80;99.90;;;;;;4186547;28;20045;-89
2023/06/20 10:29:00;;;;;;;7.45;4.28;;;28.00;99.90;;;;;;4195964;28;20060;-89
2023/06/20 10:31:00;;;;;;;5.78;4.43;;;28.20;99.90;;;;;;4198209;28;20048;-89
2023/06/20 10:33:11;;;;;;;5.28;4.18;;;28.40;99.90;;;;;;4211832;28;20047;-88
2023/06/20 10:35:15;;;;;;;5.13;4.20;;;28.20;99.90;;;;;;4205518;28;20044;-88